Aérodrome :







RETROUVEZ-NOUS SUR...

 
LOGIN :

S'inscrire | Disclaimer

   EN    FR    IT 

 









Légende :    VFR   VFR Marginal   IFR   IFR Intensif   IFR Très Intensif
Visi : 
Plafond : 
>= 8 km
>= 3000ft
5 à 8 km
1000 à 3000 ft
1500m à 5 km
500 à 1000 ft
800 à 1500m
200 à 500 ft
< 800m
< 200 ft
Symboles :   Orages  Brouillard  Fortes neiges  Fortes précipitations  Vent > 20 kt






- Altitude de l'aérodrome : 20 ft
- Code IATA : BOS


KBOS - General Edward Lawrence Logan International

DERNIER METAR :
  • 040324Z 03024G29KT 3SM -RA BR OVC012 06/04 A2989 RMK AO2 PK WND 03032/0307 P0000 T00560044

METARs EXPIRÉS :
  • 040254Z 03023G31KT 2 1/2SM -RA BR FEW007 BKN010 OVC014 06/04 A2988 RMK AO2 PK WND 03032/0210 SLP118 P0001 60002 T00560044 51024
  • 040154Z 03025G30KT 2 1/2SM -RA BR SCT009 BKN012 OVC016 06/05 A2987 RMK AO2 PK WND 03035/0056 SLP113 P0000 T00610050
  • 040054Z 03024G34KT 2SM -RA BR FEW008 BKN010 OVC015 06/05 A2984 RMK AO2 PK WND 02034/0054 SLP105 P0001 T00610050

TAF KBOS
Valide du 04 à 00h jusqu'au 05 à 06h UTC


032326Z 0400/0506 03022G32KT 2SM -SHRA BR OVC010
FM040700 03016G25KT 3SM BR VCSH OVC008
FM041000 03013G27KT 5SM BR VCSH OVC008
FM041200 03013G26KT P6SM VCSH OVC008
FM041500 04013G23KT P6SM OVC010
FM041700 04012G19KT P6SM BKN014
FM042300 08008KT P6SM BKN035



MET'MAP, la Météo Aéronautique d'un coup d'oeil ! - Copyright ORBIFLY Décembre 2007 - Disclaimer

ORBIFLY MET'MAP TEAM :

Programmation & Développement : Alexandra Zaïnal
Sur une idée originale de : Baudouin d'Aumeries
Assistance à la programmation : Marc-Olivier Méhu
Soutien technique & logistique : Manuel Goepfert

Contact : metmap@orbifly.com




SOURCES & CREDITS :

   NOAA